sensor_id;sensor_type;location;lat;lon;timestamp;temperature;humidity
64654;DHT22;51065;48.884;12.598;2022-11-20T00:00:00;0.90;99.90
64654;DHT22;51065;48.884;12.598;2022-11-20T00:02:26;0.90;99.90
64654;DHT22;51065;48.884;12.598;2022-11-20T00:04:51;0.90;99.90
64654;DHT22;51065;48.884;12.598;2022-11-20T00:07:17;0.90;99.90
64654;DHT22;51065;48.884;12.598;2022-11-20T00:09:43;0.90;99.90
64654;DHT22;51065;48.884;12.598;2022-11-20T00:12:08;1.00;99.90
64654;DHT22;51065;48.884;12.598;2022-11-20T00:14:34;1.00;99.90
64654;DHT22;51065;48.884;12.598;2022-11-20T00:16:59;1.00;99.90
64654;DHT22;51065;48.884;12.598;2022-11-20T00:19:25;0.90;99.90
64654;DHT22;51065;48.884;12.598;2022-11-20T00:21:51;1.00;99.90
64654;DHT22;51065;48.884;12.598;2022-11-20T00:24:19;0.90;99.90
64654;DHT22;51065;48.884;12.598;2022-11-20T00:26:44;1.00;99.90
64654;DHT22;51065;48.884;12.598;2022-11-20T00:29:10;0.90;99.90
64654;DHT22;51065;48.884;12.598;2022-11-20T00:31:36;0.90;99.90
64654;DHT22;51065;48.884;12.598;2022-11-20T00:34:03;0.90;99.90
64654;DHT22;51065;48.884;12.598;2022-11-20T00:36:31;0.90;99.90
64654;DHT22;51065;48.884;12.598;2022-11-20T00:38:58;0.90;99.90
64654;DHT22;51065;48.884;12.598;2022-11-20T00:41:24;0.90;99.90
64654;DHT22;51065;48.884;12.598;2022-11-20T00:43:52;0.90;99.90
64654;DHT22;51065;48.884;12.598;2022-11-20T00:46:20;0.90;99.90
64654;DHT22;51065;48.884;12.598;2022-11-20T00:48:46;0.90;99.90
64654;DHT22;51065;48.884;12.598;2022-11-20T00:51:14;0.90;99.90
64654;DHT22;51065;48.884;12.598;2022-11-20T00:53:40;0.90;99.90
64654;DHT22;51065;48.884;12.598;2022-11-20T00:56:09;0.90;99.90
64654;DHT22;51065;48.884;12.598;2022-11-20T00:58:37;0.90;99.90
64654;DHT22;51065;48.884;12.598;2022-11-20T01:01:18;0.90;99.90
64654;DHT22;51065;48.884;12.598;2022-11-20T01:03:44;0.90;99.90
64654;DHT22;51065;48.884;12.598;2022-11-20T01:06:16;0.90;99.90
64654;DHT22;51065;48.884;12.598;2022-11-20T01:08:43;0.90;99.90
64654;DHT22;51065;48.884;12.598;2022-11-20T01:11:11;0.90;99.90
64654;DHT22;51065;48.884;12.598;2022-11-20T01:13:38;0.90;99.90
64654;DHT22;51065;48.884;12.598;2022-11-20T01:16:11;1.00;99.90
64654;DHT22;51065;48.884;12.598;2022-11-20T01:18:38;1.00;99.90
64654;DHT22;51065;48.884;12.598;2022-11-20T01:21:06;1.00;99.90
64654;DHT22;51065;48.884;12.598;2022-11-20T01:23:34;1.00;99.90
64654;DHT22;51065;48.884;12.598;2022-11-20T01:26:01;1.00;99.90
64654;DHT22;51065;48.884;12.598;2022-11-20T01:28:28;0.90;99.90
64654;DHT22;51065;48.884;12.598;2022-11-20T01:30:54;1.00;99.90
64654;DHT22;51065;48.884;12.598;2022-11-20T01:33:20;0.90;99.90
64654;DHT22;51065;48.884;12.598;2022-11-20T01:35:45;0.90;99.90
64654;DHT22;51065;48.884;12.598;2022-11-20T01:38:11;0.90;99.90
64654;DHT22;51065;48.884;12.598;2022-11-20T01:40:37;0.90;99.90
64654;DHT22;51065;48.884;12.598;2022-11-20T01:43:28;0.90;99.90
64654;DHT22;51065;48.884;12.598;2022-11-20T01:51:12;1.00;99.90
64654;DHT22;51065;48.884;12.598;2022-11-20T01:53:40;1.00;99.90
64654;DHT22;51065;48.884;12.598;2022-11-20T01:56:10;1.00;99.90
64654;DHT22;51065;48.884;12.598;2022-11-20T01:58:40;1.10;99.90
64654;DHT22;51065;48.884;12.598;2022-11-20T02:01:07;1.10;99.90
64654;DHT22;51065;48.884;12.598;2022-11-20T02:03:33;1.10;99.90
64654;DHT22;51065;48.884;12.598;2022-11-20T02:06:19;1.00;99.90
64654;DHT22;51065;48.884;12.598;2022-11-20T02:08:46;1.00;99.90
64654;DHT22;51065;48.884;12.598;2022-11-20T02:11:11;1.10;99.90
64654;DHT22;51065;48.884;12.598;2022-11-20T02:13:38;1.10;99.90
64654;DHT22;51065;48.884;12.598;2022-11-20T02:16:25;1.10;99.90
64654;DHT22;51065;48.884;12.598;2022-11-20T02:18:52;1.10;99.90
64654;DHT22;51065;48.884;12.598;2022-11-20T02:21:28;1.20;99.90
64654;DHT22;51065;48.884;12.598;2022-11-20T02:24:04;1.20;99.90
64654;DHT22;51065;48.884;12.598;2022-11-20T02:26:35;1.20;99.90
64654;DHT22;51065;48.884;12.598;2022-11-20T02:29:03;1.20;99.90
64654;DHT22;51065;48.884;12.598;2022-11-20T02:31:33;1.20;99.90
64654;DHT22;51065;48.884;12.598;2022-11-20T02:33:59;1.20;99.90
64654;DHT22;51065;48.884;12.598;2022-11-20T02:36:26;1.20;99.90
64654;DHT22;51065;48.884;12.598;2022-11-20T02:38:53;1.30;99.90
64654;DHT22;51065;48.884;12.598;2022-11-20T02:41:19;1.20;99.90
64654;DHT22;51065;48.884;12.598;2022-11-20T02:43:45;1.20;99.90
64654;DHT22;51065;48.884;12.598;2022-11-20T02:46:11;1.30;99.90
64654;DHT22;51065;48.884;12.598;2022-11-20T02:48:36;1.30;99.90
64654;DHT22;51065;48.884;12.598;2022-11-20T02:51:02;1.30;99.90
64654;DHT22;51065;48.884;12.598;2022-11-20T02:53:28;1.30;99.90
64654;DHT22;51065;48.884;12.598;2022-11-20T02:55:54;1.30;99.90
64654;DHT22;51065;48.884;12.598;2022-11-20T02:58:19;1.30;99.90
64654;DHT22;51065;48.884;12.598;2022-11-20T03:00:45;1.30;99.90
64654;DHT22;51065;48.884;12.598;2022-11-20T03:03:11;1.40;99.90
64654;DHT22;51065;48.884;12.598;2022-11-20T03:05:36;1.40;99.90
64654;DHT22;51065;48.884;12.598;2022-11-20T03:08:02;1.40;99.90
64654;DHT22;51065;48.884;12.598;2022-11-20T03:10:27;1.40;99.90
64654;DHT22;51065;48.884;12.598;2022-11-20T03:12:55;1.40;99.90
64654;DHT22;51065;48.884;12.598;2022-11-20T03:15:24;1.40;99.90
64654;DHT22;51065;48.884;12.598;2022-11-20T03:17:53;1.50;99.90
64654;DHT22;51065;48.884;12.598;2022-11-20T03:20:20;1.50;99.90
64654;DHT22;51065;48.884;12.598;2022-11-20T03:22:45;1.50;99.90
64654;DHT22;51065;48.884;12.598;2022-11-20T03:25:11;1.50;99.90
64654;DHT22;51065;48.884;12.598;2022-11-20T03:27:36;1.50;99.90
64654;DHT22;51065;48.884;12.598;2022-11-20T03:30:02;1.50;99.90
64654;DHT22;51065;48.884;12.598;2022-11-20T03:32:28;1.60;99.90
64654;DHT22;51065;48.884;12.598;2022-11-20T03:34:54;1.60;99.90
64654;DHT22;51065;48.884;12.598;2022-11-20T03:37:19;1.60;99.90
64654;DHT22;51065;48.884;12.598;2022-11-20T03:39:45;1.60;99.90
64654;DHT22;51065;48.884;12.598;2022-11-20T03:42:10;1.60;99.90
64654;DHT22;51065;48.884;12.598;2022-11-20T03:44:56;1.60;99.90
64654;DHT22;51065;48.884;12.598;2022-11-20T03:47:22;1.60;99.90
64654;DHT22;51065;48.884;12.598;2022-11-20T03:49:47;1.60;99.90
64654;DHT22;51065;48.884;12.598;2022-11-20T03:52:13;1.60;99.90
64654;DHT22;51065;48.884;12.598;2022-11-20T03:54:38;1.60;99.90
64654;DHT22;51065;48.884;12.598;2022-11-20T03:57:04;1.60;99.90
64654;DHT22;51065;48.884;12.598;2022-11-20T03:59:30;1.60;99.90
64654;DHT22;51065;48.884;12.598;2022-11-20T04:01:55;1.60;99.90
64654;DHT22;51065;48.884;12.598;2022-11-20T04:04:21;1.60;99.90
64654;DHT22;51065;48.884;12.598;2022-11-20T04:06:46;1.60;99.90
64654;DHT22;51065;48.884;12.598;2022-11-20T04:09:13;1.60;99.90
64654;DHT22;51065;48.884;12.598;2022-11-20T04:11:39;1.60;99.90
64654;DHT22;51065;48.884;12.598;2022-11-20T04:14:11;1.60;99.90
64654;DHT22;51065;48.884;12.598;2022-11-20T04:16:37;1.60;99.90
64654;DHT22;51065;48.884;12.598;2022-11-20T04:19:04;1.60;99.90
64654;DHT22;51065;48.884;12.598;2022-11-20T04:21:31;1.60;99.90
64654;DHT22;51065;48.884;12.598;2022-11-20T04:23:56;1.60;99.90
64654;DHT22;51065;48.884;12.598;2022-11-20T04:26:24;1.60;99.90
64654;DHT22;51065;48.884;12.598;2022-11-20T04:28:50;1.60;99.90
64654;DHT22;51065;48.884;12.598;2022-11-20T04:31:21;1.60;99.90
64654;DHT22;51065;48.884;12.598;2022-11-20T04:33:47;1.60;99.90
64654;DHT22;51065;48.884;12.598;2022-11-20T04:36:17;1.60;99.90
64654;DHT22;51065;48.884;12.598;2022-11-20T04:38:43;1.60;99.90
64654;DHT22;51065;48.884;12.598;2022-11-20T04:41:14;1.60;99.90
64654;DHT22;51065;48.884;12.598;2022-11-20T04:43:40;1.60;99.90
64654;DHT22;51065;48.884;12.598;2022-11-20T04:46:06;1.70;99.90
64654;DHT22;51065;48.884;12.598;2022-11-20T04:48:31;1.70;99.90
64654;DHT22;51065;48.884;12.598;2022-11-20T04:50:57;1.70;99.90
64654;DHT22;51065;48.884;12.598;2022-11-20T04:53:23;1.70;99.90
64654;DHT22;51065;48.884;12.598;2022-11-20T04:55:49;1.70;99.90
64654;DHT22;51065;48.884;12.598;2022-11-20T04:58:15;1.70;99.90
64654;DHT22;51065;48.884;12.598;2022-11-20T05:00:40;1.60;99.90
64654;DHT22;51065;48.884;12.598;2022-11-20T05:03:06;1.60;99.90
64654;DHT22;51065;48.884;12.598;2022-11-20T05:05:34;1.70;99.90
64654;DHT22;51065;48.884;12.598;2022-11-20T05:08:00;1.60;99.90
64654;DHT22;51065;48.884;12.598;2022-11-20T05:10:26;1.70;99.90
64654;DHT22;51065;48.884;12.598;2022-11-20T05:12:52;1.70;99.90
64654;DHT22;51065;48.884;12.598;2022-11-20T05:15:18;1.70;99.90
64654;DHT22;51065;48.884;12.598;2022-11-20T05:17:48;1.70;99.90
64654;DHT22;51065;48.884;12.598;2022-11-20T05:20:14;1.70;99.90
64654;DHT22;51065;48.884;12.598;2022-11-20T05:22:39;1.70;99.90
64654;DHT22;51065;48.884;12.598;2022-11-20T05:25:05;1.70;99.90
64654;DHT22;51065;48.884;12.598;2022-11-20T05:27:31;1.70;99.90
64654;DHT22;51065;48.884;12.598;2022-11-20T05:29:56;1.60;99.90
64654;DHT22;51065;48.884;12.598;2022-11-20T05:32:22;1.70;99.90
64654;DHT22;51065;48.884;12.598;2022-11-20T05:34:51;1.70;99.90
64654;DHT22;51065;48.884;12.598;2022-11-20T05:37:16;1.60;99.90
64654;DHT22;51065;48.884;12.598;2022-11-20T05:39:42;1.70;99.90
64654;DHT22;51065;48.884;12.598;2022-11-20T05:42:08;1.70;99.90
64654;DHT22;51065;48.884;12.598;2022-11-20T05:44:52;1.70;99.90
64654;DHT22;51065;48.884;12.598;2022-11-20T05:47:17;1.70;99.90
64654;DHT22;51065;48.884;12.598;2022-11-20T05:49:43;1.70;99.90
64654;DHT22;51065;48.884;12.598;2022-11-20T05:52:08;1.70;99.90
64654;DHT22;51065;48.884;12.598;2022-11-20T05:54:34;1.70;99.90
64654;DHT22;51065;48.884;12.598;2022-11-20T05:57:00;1.70;99.90
64654;DHT22;51065;48.884;12.598;2022-11-20T05:59:26;1.80;99.90
64654;DHT22;51065;48.884;12.598;2022-11-20T06:01:51;1.80;99.90
64654;DHT22;51065;48.884;12.598;2022-11-20T06:04:17;1.80;99.90
64654;DHT22;51065;48.884;12.598;2022-11-20T06:06:42;1.80;99.90
64654;DHT22;51065;48.884;12.598;2022-11-20T06:09:08;1.80;99.90
64654;DHT22;51065;48.884;12.598;2022-11-20T06:11:33;1.80;99.90
64654;DHT22;51065;48.884;12.598;2022-11-20T06:13:59;1.80;99.90
64654;DHT22;51065;48.884;12.598;2022-11-20T06:16:25;1.70;99.90
64654;DHT22;51065;48.884;12.598;2022-11-20T06:18:51;1.80;99.90
64654;DHT22;51065;48.884;12.598;2022-11-20T06:21:19;1.70;99.90
64654;DHT22;51065;48.884;12.598;2022-11-20T06:23:45;1.80;99.90
64654;DHT22;51065;48.884;12.598;2022-11-20T06:26:13;1.80;99.90
64654;DHT22;51065;48.884;12.598;2022-11-20T06:28:39;1.80;99.90
64654;DHT22;51065;48.884;12.598;2022-11-20T06:31:05;1.80;99.90
64654;DHT22;51065;48.884;12.598;2022-11-20T06:33:32;1.80;99.90
64654;DHT22;51065;48.884;12.598;2022-11-20T06:35:59;1.80;99.90
64654;DHT22;51065;48.884;12.598;2022-11-20T06:38:26;1.80;99.90
64654;DHT22;51065;48.884;12.598;2022-11-20T06:40:51;1.80;99.90
64654;DHT22;51065;48.884;12.598;2022-11-20T06:43:17;1.80;99.90
64654;DHT22;51065;48.884;12.598;2022-11-20T06:45:42;1.80;99.90
64654;DHT22;51065;48.884;12.598;2022-11-20T06:48:08;1.80;99.90
64654;DHT22;51065;48.884;12.598;2022-11-20T06:50:37;1.80;99.90
64654;DHT22;51065;48.884;12.598;2022-11-20T06:53:04;1.80;99.90
64654;DHT22;51065;48.884;12.598;2022-11-20T06:55:31;1.80;99.90
64654;DHT22;51065;48.884;12.598;2022-11-20T06:57:57;1.90;99.90
64654;DHT22;51065;48.884;12.598;2022-11-20T07:00:22;1.90;99.90
64654;DHT22;51065;48.884;12.598;2022-11-20T07:02:48;1.90;99.90
64654;DHT22;51065;48.884;12.598;2022-11-20T07:05:14;1.90;99.90
64654;DHT22;51065;48.884;12.598;2022-11-20T07:07:39;2.00;99.90
64654;DHT22;51065;48.884;12.598;2022-11-20T07:10:05;2.00;99.90
64654;DHT22;51065;48.884;12.598;2022-11-20T07:12:31;2.00;99.90
64654;DHT22;51065;48.884;12.598;2022-11-20T07:14:57;2.00;99.90
64654;DHT22;51065;48.884;12.598;2022-11-20T07:17:22;2.00;99.90
64654;DHT22;51065;48.884;12.598;2022-11-20T07:19:48;2.00;99.90
64654;DHT22;51065;48.884;12.598;2022-11-20T07:22:13;2.10;99.90
64654;DHT22;51065;48.884;12.598;2022-11-20T07:24:39;2.10;99.90
64654;DHT22;51065;48.884;12.598;2022-11-20T07:27:05;2.10;99.90
64654;DHT22;51065;48.884;12.598;2022-11-20T07:29:30;2.10;99.90
64654;DHT22;51065;48.884;12.598;2022-11-20T07:31:56;2.10;99.90
64654;DHT22;51065;48.884;12.598;2022-11-20T07:34:22;2.10;99.90
64654;DHT22;51065;48.884;12.598;2022-11-20T07:36:48;2.10;99.90
64654;DHT22;51065;48.884;12.598;2022-11-20T07:39:13;2.10;99.90
64654;DHT22;51065;48.884;12.598;2022-11-20T07:41:39;2.20;99.90
64654;DHT22;51065;48.884;12.598;2022-11-20T07:44:05;2.20;99.90
64654;DHT22;51065;48.884;12.598;2022-11-20T07:46:30;2.30;99.90
64654;DHT22;51065;48.884;12.598;2022-11-20T07:48:56;2.20;99.90
64654;DHT22;51065;48.884;12.598;2022-11-20T07:51:22;2.30;99.90
64654;DHT22;51065;48.884;12.598;2022-11-20T07:53:50;2.30;99.90
64654;DHT22;51065;48.884;12.598;2022-11-20T07:56:15;2.30;99.90
64654;DHT22;51065;48.884;12.598;2022-11-20T07:58:41;2.30;99.90
64654;DHT22;51065;48.884;12.598;2022-11-20T08:01:07;2.30;99.90
64654;DHT22;51065;48.884;12.598;2022-11-20T08:03:33;2.40;99.90
64654;DHT22;51065;48.884;12.598;2022-11-20T08:05:59;2.40;99.90
64654;DHT22;51065;48.884;12.598;2022-11-20T08:08:28;2.40;99.90
64654;DHT22;51065;48.884;12.598;2022-11-20T08:10:57;2.50;99.90
64654;DHT22;51065;48.884;12.598;2022-11-20T08:13:43;2.50;99.90
64654;DHT22;51065;48.884;12.598;2022-11-20T08:16:27;2.60;99.90
64654;DHT22;51065;48.884;12.598;2022-11-20T08:18:53;2.60;99.90
64654;DHT22;51065;48.884;12.598;2022-11-20T08:21:19;2.70;99.90
64654;DHT22;51065;48.884;12.598;2022-11-20T08:23:44;2.80;99.90
64654;DHT22;51065;48.884;12.598;2022-11-20T08:26:10;2.80;99.90
64654;DHT22;51065;48.884;12.598;2022-11-20T08:28:35;2.90;99.90
64654;DHT22;51065;48.884;12.598;2022-11-20T08:31:02;2.90;99.90
64654;DHT22;51065;48.884;12.598;2022-11-20T08:33:29;3.00;99.90
64654;DHT22;51065;48.884;12.598;2022-11-20T08:35:59;3.00;99.90
64654;DHT22;51065;48.884;12.598;2022-11-20T08:38:25;3.10;99.90
64654;DHT22;51065;48.884;12.598;2022-11-20T08:40:50;3.00;99.90
64654;DHT22;51065;48.884;12.598;2022-11-20T08:43:35;3.10;99.90
64654;DHT22;51065;48.884;12.598;2022-11-20T08:46:00;3.10;99.90
64654;DHT22;51065;48.884;12.598;2022-11-20T08:48:26;3.10;99.90
64654;DHT22;51065;48.884;12.598;2022-11-20T08:50:52;3.10;99.90
64654;DHT22;51065;48.884;12.598;2022-11-20T08:53:17;3.20;99.90
64654;DHT22;51065;48.884;12.598;2022-11-20T08:55:43;3.20;99.90
64654;DHT22;51065;48.884;12.598;2022-11-20T08:58:08;3.20;99.90
64654;DHT22;51065;48.884;12.598;2022-11-20T09:00:34;3.30;99.90
64654;DHT22;51065;48.884;12.598;2022-11-20T09:03:00;3.40;99.90
64654;DHT22;51065;48.884;12.598;2022-11-20T09:05:27;3.50;99.90
64654;DHT22;51065;48.884;12.598;2022-11-20T09:07:56;3.60;99.90
64654;DHT22;51065;48.884;12.598;2022-11-20T09:10:22;3.60;99.90
64654;DHT22;51065;48.884;12.598;2022-11-20T09:12:51;3.50;99.90
64654;DHT22;51065;48.884;12.598;2022-11-20T09:15:17;3.40;99.90
64654;DHT22;51065;48.884;12.598;2022-11-20T09:17:54;3.50;99.90
64654;DHT22;51065;48.884;12.598;2022-11-20T09:20:20;3.50;99.90
64654;DHT22;51065;48.884;12.598;2022-11-20T09:22:46;3.50;99.90
64654;DHT22;51065;48.884;12.598;2022-11-20T09:25:11;3.50;99.90
64654;DHT22;51065;48.884;12.598;2022-11-20T09:27:37;3.50;99.90
64654;DHT22;51065;48.884;12.598;2022-11-20T09:30:03;3.50;99.90
64654;DHT22;51065;48.884;12.598;2022-11-20T09:32:29;3.60;99.90
64654;DHT22;51065;48.884;12.598;2022-11-20T09:34:54;3.70;99.90
64654;DHT22;51065;48.884;12.598;2022-11-20T09:37:20;3.70;99.90
64654;DHT22;51065;48.884;12.598;2022-11-20T09:39:45;3.70;99.90
64654;DHT22;51065;48.884;12.598;2022-11-20T09:48:18;3.80;99.90
64654;DHT22;51065;48.884;12.598;2022-11-20T09:50:52;3.90;99.90
64654;DHT22;51065;48.884;12.598;2022-11-20T09:53:44;3.90;99.90
64654;DHT22;51065;48.884;12.598;2022-11-20T09:56:11;3.90;99.90
64654;DHT22;51065;48.884;12.598;2022-11-20T09:58:44;3.90;99.90
64654;DHT22;51065;48.884;12.598;2022-11-20T10:01:19;3.90;99.90
64654;DHT22;51065;48.884;12.598;2022-11-20T10:06:29;4.00;99.90
64654;DHT22;51065;48.884;12.598;2022-11-20T10:09:06;4.10;99.90
64654;DHT22;51065;48.884;12.598;2022-11-20T10:12:07;4.10;99.90
64654;DHT22;51065;48.884;12.598;2022-11-20T10:14:53;4.10;99.90
64654;DHT22;51065;48.884;12.598;2022-11-20T10:28:12;4.40;99.90
64654;DHT22;51065;48.884;12.598;2022-11-20T10:30:43;4.50;99.90
64654;DHT22;51065;48.884;12.598;2022-11-20T10:33:23;4.60;99.90
64654;DHT22;51065;48.884;12.598;2022-11-20T10:36:00;4.50;99.90
64654;DHT22;51065;48.884;12.598;2022-11-20T10:38:43;4.50;99.90
64654;DHT22;51065;48.884;12.598;2022-11-20T10:41:17;4.40;99.90
64654;DHT22;51065;48.884;12.598;2022-11-20T10:44:30;4.30;99.90
64654;DHT22;51065;48.884;12.598;2022-11-20T10:47:18;4.30;99.90
64654;DHT22;51065;48.884;12.598;2022-11-20T10:49:54;4.30;99.90
64654;DHT22;51065;48.884;12.598;2022-11-20T11:00:20;4.20;99.90
64654;DHT22;51065;48.884;12.598;2022-11-20T11:02:53;4.20;99.90
64654;DHT22;51065;48.884;12.598;2022-11-20T11:07:48;4.30;99.90
64654;DHT22;51065;48.884;12.598;2022-11-20T11:10:42;4.30;99.90
64654;DHT22;51065;48.884;12.598;2022-11-20T11:13:23;4.30;99.90
64654;DHT22;51065;48.884;12.598;2022-11-20T11:15:49;4.30;99.90
64654;DHT22;51065;48.884;12.598;2022-11-20T11:18:29;4.30;99.90
64654;DHT22;51065;48.884;12.598;2022-11-20T11:20:57;4.40;99.90
64654;DHT22;51065;48.884;12.598;2022-11-20T11:25:59;4.40;99.90
64654;DHT22;51065;48.884;12.598;2022-11-20T11:28:26;4.40;99.90
64654;DHT22;51065;48.884;12.598;2022-11-20T11:30:54;4.40;99.90
64654;DHT22;51065;48.884;12.598;2022-11-20T11:33:31;4.40;99.90
64654;DHT22;51065;48.884;12.598;2022-11-20T11:36:04;4.40;99.90
64654;DHT22;51065;48.884;12.598;2022-11-20T11:38:41;4.40;99.90
64654;DHT22;51065;48.884;12.598;2022-11-20T11:41:15;4.60;99.90
64654;DHT22;51065;48.884;12.598;2022-11-20T11:43:53;4.60;99.90
64654;DHT22;51065;48.884;12.598;2022-11-20T11:46:39;4.50;99.90
64654;DHT22;51065;48.884;12.598;2022-11-20T11:54:16;4.60;99.90
64654;DHT22;51065;48.884;12.598;2022-11-20T11:56:43;4.70;99.90
64654;DHT22;51065;48.884;12.598;2022-11-20T11:59:15;4.70;99.90
64654;DHT22;51065;48.884;12.598;2022-11-20T12:02:28;4.70;99.90
64654;DHT22;51065;48.884;12.598;2022-11-20T12:05:21;4.60;99.90
64654;DHT22;51065;48.884;12.598;2022-11-20T12:07:47;4.60;99.90
64654;DHT22;51065;48.884;12.598;2022-11-20T12:16:01;4.80;99.90
64654;DHT22;51065;48.884;12.598;2022-11-20T12:18:27;4.80;99.90
64654;DHT22;51065;48.884;12.598;2022-11-20T12:24:08;4.90;99.90
64654;DHT22;51065;48.884;12.598;2022-11-20T12:27:05;4.90;99.90
64654;DHT22;51065;48.884;12.598;2022-11-20T12:47:24;5.00;99.90
64654;DHT22;51065;48.884;12.598;2022-11-20T12:49:56;5.00;99.90
64654;DHT22;51065;48.884;12.598;2022-11-20T12:52:57;5.00;99.90
64654;DHT22;51065;48.884;12.598;2022-11-20T12:55:27;5.00;99.90
64654;DHT22;51065;48.884;12.598;2022-11-20T12:57:57;5.10;99.90
64654;DHT22;51065;48.884;12.598;2022-11-20T13:00:24;5.10;99.90
64654;DHT22;51065;48.884;12.598;2022-11-20T13:08:34;5.50;99.90
64654;DHT22;51065;48.884;12.598;2022-11-20T13:16:23;5.70;99.90
64654;DHT22;51065;48.884;12.598;2022-11-20T13:18:52;5.70;99.90
64654;DHT22;51065;48.884;12.598;2022-11-20T13:21:21;5.70;99.90
64654;DHT22;51065;48.884;12.598;2022-11-20T13:23:47;5.80;99.90
64654;DHT22;51065;48.884;12.598;2022-11-20T13:26:17;5.70;99.90
64654;DHT22;51065;48.884;12.598;2022-11-20T13:28:43;5.80;99.90
64654;DHT22;51065;48.884;12.598;2022-11-20T13:31:31;5.80;99.90
64654;DHT22;51065;48.884;12.598;2022-11-20T13:33:58;5.80;99.90
64654;DHT22;51065;48.884;12.598;2022-11-20T13:36:27;5.80;99.90
64654;DHT22;51065;48.884;12.598;2022-11-20T13:38:55;5.80;99.90
64654;DHT22;51065;48.884;12.598;2022-11-20T13:41:35;5.90;99.90
64654;DHT22;51065;48.884;12.598;2022-11-20T13:44:09;5.90;99.90
64654;DHT22;51065;48.884;12.598;2022-11-20T13:46:43;5.90;99.90
64654;DHT22;51065;48.884;12.598;2022-11-20T13:49:18;5.90;99.90
64654;DHT22;51065;48.884;12.598;2022-11-20T13:51:48;6.00;99.90
64654;DHT22;51065;48.884;12.598;2022-11-20T13:54:43;6.00;99.90
64654;DHT22;51065;48.884;12.598;2022-11-20T14:00:03;6.00;99.90
64654;DHT22;51065;48.884;12.598;2022-11-20T14:02:30;6.00;99.90
64654;DHT22;51065;48.884;12.598;2022-11-20T14:04:58;6.00;99.90
64654;DHT22;51065;48.884;12.598;2022-11-20T14:07:33;5.90;99.90
64654;DHT22;51065;48.884;12.598;2022-11-20T14:10:00;5.90;99.90
64654;DHT22;51065;48.884;12.598;2022-11-20T14:12:31;5.90;99.90
64654;DHT22;51065;48.884;12.598;2022-11-20T14:14:57;5.90;99.90
64654;DHT22;51065;48.884;12.598;2022-11-20T14:17:30;5.90;99.90
64654;DHT22;51065;48.884;12.598;2022-11-20T14:20:01;5.90;99.90
64654;DHT22;51065;48.884;12.598;2022-11-20T14:22:28;5.90;99.90
64654;DHT22;51065;48.884;12.598;2022-11-20T14:25:24;6.00;99.90
64654;DHT22;51065;48.884;12.598;2022-11-20T14:27:53;5.90;99.90
64654;DHT22;51065;48.884;12.598;2022-11-20T14:30:25;5.90;99.90
64654;DHT22;51065;48.884;12.598;2022-11-20T14:32:56;5.90;99.90
64654;DHT22;51065;48.884;12.598;2022-11-20T14:35:34;5.90;99.90
64654;DHT22;51065;48.884;12.598;2022-11-20T14:38:01;5.80;99.90
64654;DHT22;51065;48.884;12.598;2022-11-20T14:40:34;5.80;99.90
64654;DHT22;51065;48.884;12.598;2022-11-20T14:43:23;5.80;99.90
64654;DHT22;51065;48.884;12.598;2022-11-20T14:48:26;5.90;99.90
64654;DHT22;51065;48.884;12.598;2022-11-20T14:50:53;5.90;99.90
64654;DHT22;51065;48.884;12.598;2022-11-20T14:53:23;5.90;99.90
64654;DHT22;51065;48.884;12.598;2022-11-20T14:55:58;6.00;99.90
64654;DHT22;51065;48.884;12.598;2022-11-20T14:58:27;6.00;99.90
64654;DHT22;51065;48.884;12.598;2022-11-20T15:01:04;6.00;99.90
64654;DHT22;51065;48.884;12.598;2022-11-20T15:03:36;6.00;99.90
64654;DHT22;51065;48.884;12.598;2022-11-20T15:06:02;6.00;99.90
64654;DHT22;51065;48.884;12.598;2022-11-20T15:08:28;6.00;99.90
64654;DHT22;51065;48.884;12.598;2022-11-20T15:10:54;6.10;99.90
64654;DHT22;51065;48.884;12.598;2022-11-20T15:13:31;6.00;99.90
64654;DHT22;51065;48.884;12.598;2022-11-20T15:16:00;6.00;99.90
64654;DHT22;51065;48.884;12.598;2022-11-20T15:18:46;6.00;99.90
64654;DHT22;51065;48.884;12.598;2022-11-20T15:21:14;6.10;99.90
64654;DHT22;51065;48.884;12.598;2022-11-20T15:23:40;6.10;99.90
64654;DHT22;51065;48.884;12.598;2022-11-20T15:26:07;6.10;99.90
64654;DHT22;51065;48.884;12.598;2022-11-20T15:28:40;6.00;99.90
64654;DHT22;51065;48.884;12.598;2022-11-20T15:31:09;6.00;99.90
64654;DHT22;51065;48.884;12.598;2022-11-20T15:33:36;6.00;99.90
64654;DHT22;51065;48.884;12.598;2022-11-20T15:36:02;6.00;99.90
64654;DHT22;51065;48.884;12.598;2022-11-20T15:38:28;6.00;99.90
64654;DHT22;51065;48.884;12.598;2022-11-20T15:40:53;6.00;99.90
64654;DHT22;51065;48.884;12.598;2022-11-20T15:43:19;6.10;99.90
64654;DHT22;51065;48.884;12.598;2022-11-20T15:48:24;6.00;99.90
64654;DHT22;51065;48.884;12.598;2022-11-20T15:53:17;6.00;99.90
64654;DHT22;51065;48.884;12.598;2022-11-20T15:55:42;6.00;99.90
64654;DHT22;51065;48.884;12.598;2022-11-20T15:58:08;6.00;99.90
64654;DHT22;51065;48.884;12.598;2022-11-20T16:00:34;6.00;99.90
64654;DHT22;51065;48.884;12.598;2022-11-20T16:02:59;6.00;99.90
64654;DHT22;51065;48.884;12.598;2022-11-20T16:05:28;6.00;99.90
64654;DHT22;51065;48.884;12.598;2022-11-20T16:07:54;6.00;99.90
64654;DHT22;51065;48.884;12.598;2022-11-20T16:10:19;6.00;99.90
64654;DHT22;51065;48.884;12.598;2022-11-20T16:12:45;6.00;99.90
64654;DHT22;51065;48.884;12.598;2022-11-20T16:15:30;6.00;99.90
64654;DHT22;51065;48.884;12.598;2022-11-20T16:18:11;6.00;99.90
64654;DHT22;51065;48.884;12.598;2022-11-20T16:20:37;6.00;99.90
64654;DHT22;51065;48.884;12.598;2022-11-20T16:23:03;6.00;99.90
64654;DHT22;51065;48.884;12.598;2022-11-20T16:25:28;6.00;99.90
64654;DHT22;51065;48.884;12.598;2022-11-20T16:27:54;6.00;99.90
64654;DHT22;51065;48.884;12.598;2022-11-20T16:30:20;6.00;99.90
64654;DHT22;51065;48.884;12.598;2022-11-20T16:32:45;6.00;99.90
64654;DHT22;51065;48.884;12.598;2022-11-20T16:35:11;6.00;99.90
64654;DHT22;51065;48.884;12.598;2022-11-20T16:37:37;6.00;99.90
64654;DHT22;51065;48.884;12.598;2022-11-20T16:40:03;6.00;99.90
64654;DHT22;51065;48.884;12.598;2022-11-20T16:42:33;5.90;99.90
64654;DHT22;51065;48.884;12.598;2022-11-20T16:44:59;5.80;99.90
64654;DHT22;51065;48.884;12.598;2022-11-20T16:47:24;5.80;99.90
64654;DHT22;51065;48.884;12.598;2022-11-20T16:49:50;5.80;99.90
64654;DHT22;51065;48.884;12.598;2022-11-20T16:52:15;5.80;99.90
64654;DHT22;51065;48.884;12.598;2022-11-20T16:54:41;5.80;99.90
64654;DHT22;51065;48.884;12.598;2022-11-20T16:57:07;5.80;99.90
64654;DHT22;51065;48.884;12.598;2022-11-20T16:59:32;5.70;99.90
64654;DHT22;51065;48.884;12.598;2022-11-20T17:01:58;5.70;99.90
64654;DHT22;51065;48.884;12.598;2022-11-20T17:04:24;5.60;99.90
64654;DHT22;51065;48.884;12.598;2022-11-20T17:06:49;5.50;99.90
64654;DHT22;51065;48.884;12.598;2022-11-20T17:09:15;5.30;99.90
64654;DHT22;51065;48.884;12.598;2022-11-20T17:11:41;5.10;99.90